createdAt,value
2022-09-03T00:00:03.583Z,20.36
2022-09-03T00:02:39.905Z,20.18
2022-09-03T00:05:14.350Z,20.45
2022-09-03T00:07:53.185Z,20.56
2022-09-03T00:10:28.894Z,20.62
2022-09-03T00:13:00.798Z,20.48
2022-09-03T00:15:28.914Z,20.17
2022-09-03T00:18:08.118Z,20.21
2022-09-03T00:20:42.588Z,20.45
2022-09-03T00:23:16.121Z,20.55
2022-09-03T00:25:47.671Z,20.63
2022-09-03T00:28:24.457Z,20.32
2022-09-03T00:30:59.380Z,20.34
2022-09-03T00:33:30.203Z,20.47
2022-09-03T00:36:07.033Z,20.67
2022-09-03T00:38:33.849Z,20.55
2022-09-03T00:41:31.617Z,20.73
2022-09-03T00:44:12.203Z,20.81
2022-09-03T00:46:49.406Z,20.77
2022-09-03T00:49:33.302Z,20.74
2022-09-03T00:52:24.879Z,20.49
2022-09-03T00:55:12.991Z,20.49
2022-09-03T00:57:52.336Z,20.59
2022-09-03T01:00:21.116Z,20.66
2022-09-03T01:03:02.597Z,20.77
2022-09-03T01:05:47.770Z,20.77
2022-09-03T01:08:29.041Z,20.74
2022-09-03T01:11:24.711Z,20.84
2022-09-03T01:14:22.922Z,20.79
2022-09-03T01:17:03.398Z,20.82
2022-09-03T01:19:45.898Z,20.90
2022-09-03T01:22:35.708Z,20.83
2022-09-03T01:25:32.254Z,20.84
2022-09-03T01:28:25.796Z,20.81
2022-09-03T01:31:26.857Z,20.89
2022-09-03T01:34:11.525Z,20.81
2022-09-03T01:36:55.985Z,20.76
2022-09-03T01:39:32.176Z,20.55
2022-09-03T01:42:20.808Z,20.24
2022-09-03T01:45:21.613Z,19.96
2022-09-03T01:48:04.808Z,20.32
2022-09-03T01:51:11.096Z,20.44
2022-09-03T01:54:11.123Z,20.60
2022-09-03T01:57:08.817Z,20.59
2022-09-03T02:00:04.239Z,20.67
2022-09-03T02:02:31.785Z,20.66
2022-09-03T02:05:08.105Z,20.71
2022-09-03T02:07:46.767Z,20.41
2022-09-03T02:10:16.788Z,20.41
2022-09-03T02:12:51.857Z,20.07
2022-09-03T02:15:22.264Z,20.05
2022-09-03T02:17:53.051Z,20.18
2022-09-03T02:20:22.404Z,19.83
2022-09-03T02:22:49.834Z,19.65
2022-09-03T02:25:20.705Z,19.44
2022-09-03T02:27:49.441Z,19.69
2022-09-03T02:30:16.740Z,19.86
2022-09-03T02:32:43.434Z,19.80
2022-09-03T02:35:10.224Z,20.10
2022-09-03T02:37:36.827Z,20.23
2022-09-03T02:40:08.919Z,20.16
2022-09-03T02:42:35.867Z,20.35
2022-09-03T02:45:24.134Z,20.45
2022-09-03T02:47:55.068Z,20.41
2022-09-03T02:50:21.695Z,20.14
2022-09-03T02:52:48.272Z,20.06
2022-09-03T02:55:15.397Z,20.08
2022-09-03T02:57:42.079Z,20.28
2022-09-03T03:00:09.495Z,20.33
2022-09-03T03:02:36.116Z,20.40
2022-09-03T03:05:02.868Z,20.43
2022-09-03T03:07:36.908Z,20.52
2022-09-03T03:10:05.116Z,20.49
2022-09-03T03:12:31.715Z,20.49
2022-09-03T03:14:58.399Z,20.47
2022-09-03T03:17:24.985Z,20.44
2022-09-03T03:19:52.038Z,20.45
2022-09-03T03:22:18.616Z,20.43
2022-09-03T03:24:45.434Z,20.43
2022-09-03T03:27:13.313Z,20.38
2022-09-03T03:29:40.439Z,20.27
2022-09-03T03:32:07.050Z,20.39
2022-09-03T03:34:33.590Z,20.20
2022-09-03T03:37:00.258Z,20.25
2022-09-03T03:39:26.871Z,20.31
2022-09-03T03:41:53.491Z,20.30
2022-09-03T03:44:20.391Z,20.35
2022-09-03T03:46:47.031Z,20.39
2022-09-03T03:49:13.787Z,20.40
2022-09-03T03:51:40.950Z,20.40
2022-09-03T03:54:07.519Z,20.38
2022-09-03T03:56:34.914Z,20.45
2022-09-03T03:59:02.127Z,20.44
2022-09-03T04:01:29.755Z,20.38
2022-09-03T04:03:57.687Z,20.46
2022-09-03T04:06:24.720Z,20.42
2022-09-03T04:08:51.483Z,20.31
2022-09-03T04:11:20.600Z,20.39
2022-09-03T04:13:48.732Z,20.39
2022-09-03T04:16:18.633Z,20.42
2022-09-03T04:18:45.581Z,20.46
2022-09-03T04:21:14.621Z,20.44
2022-09-03T04:23:43.716Z,20.45
2022-09-03T04:26:12.359Z,20.42
2022-09-03T04:28:39.192Z,20.43
2022-09-03T04:31:09.017Z,20.44
2022-09-03T04:33:38.206Z,20.42
2022-09-03T04:36:06.571Z,20.41
2022-09-03T04:38:34.623Z,20.44
2022-09-03T04:41:01.703Z,20.46
2022-09-03T04:43:29.153Z,20.39
2022-09-03T04:45:59.996Z,20.24
2022-09-03T04:48:31.065Z,20.05
2022-09-03T04:51:10.156Z,20.11
2022-09-03T04:53:39.193Z,20.15
2022-09-03T04:56:20.341Z,20.21
2022-09-03T04:58:49.173Z,20.25
2022-09-03T05:01:18.868Z,20.30
2022-09-03T05:03:45.853Z,20.28
2022-09-03T05:06:13.937Z,20.25
2022-09-03T05:08:40.563Z,20.21
2022-09-03T05:11:07.855Z,20.25
2022-09-03T05:13:37.104Z,20.20
2022-09-03T05:16:08.873Z,20.23
2022-09-03T05:18:36.493Z,20.10
2022-09-03T05:21:08.527Z,20.04
2022-09-03T05:23:41.878Z,20.08
2022-09-03T05:26:12.507Z,20.08
2022-09-03T05:28:41.341Z,20.08
2022-09-03T05:31:10.956Z,20.10
2022-09-03T05:33:40.187Z,20.07
2022-09-03T05:36:16.135Z,20.13
2022-09-03T05:38:43.398Z,20.09
2022-09-03T05:41:12.669Z,20.07
2022-09-03T05:43:39.886Z,20.08
2022-09-03T05:46:09.399Z,20.10
2022-09-03T05:48:37.755Z,20.09
2022-09-03T05:51:09.945Z,20.13
2022-09-03T05:53:39.173Z,20.17
2022-09-03T05:56:10.950Z,20.17
2022-09-03T05:58:41.380Z,20.15
2022-09-03T06:01:20.123Z,20.17
2022-09-03T06:03:52.979Z,20.20
2022-09-03T06:06:24.172Z,20.19
2022-09-03T06:08:51.714Z,20.22
2022-09-03T06:11:18.357Z,20.24
2022-09-03T06:13:45.068Z,20.20
2022-09-03T06:16:11.796Z,20.24
2022-09-03T06:18:38.663Z,20.24
2022-09-03T06:21:07.345Z,20.26
2022-09-03T06:23:36.274Z,20.29
2022-09-03T06:26:08.763Z,20.34
2022-09-03T06:28:38.152Z,20.18
2022-09-03T06:31:07.369Z,20.13
2022-09-03T06:33:35.885Z,20.19
2022-09-03T06:36:08.662Z,20.26
2022-09-03T06:38:36.922Z,20.34
2022-09-03T06:41:09.462Z,20.41
2022-09-03T06:43:41.455Z,20.42
2022-09-03T06:46:11.141Z,20.45
2022-09-03T06:48:38.943Z,20.48
2022-09-03T06:51:14.542Z,20.49
2022-09-03T06:53:44.331Z,20.51
2022-09-03T06:56:13.436Z,20.49
2022-09-03T06:58:45.750Z,20.51
2022-09-03T07:01:19.386Z,20.60
2022-09-03T07:03:48.631Z,20.58
2022-09-03T07:06:17.696Z,20.54
2022-09-03T07:08:46.450Z,20.64
2022-09-03T07:11:19.706Z,20.20
2022-09-03T07:13:48.635Z,20.41
2022-09-03T07:16:23.929Z,20.51
2022-09-03T07:18:51.377Z,20.68
2022-09-03T07:21:20.260Z,20.54
2022-09-03T07:23:48.033Z,20.53
2022-09-03T07:26:17.396Z,20.54
2022-09-03T07:28:46.069Z,20.52
2022-09-03T07:31:26.111Z,20.48
2022-09-03T07:33:57.188Z,20.39
2022-09-03T07:36:25.640Z,20.44
2022-09-03T07:38:56.850Z,20.48
2022-09-03T07:41:28.381Z,20.51
2022-09-03T07:43:57.311Z,20.53
2022-09-03T07:46:26.686Z,20.51
2022-09-03T07:48:55.647Z,20.52
2022-09-03T07:51:31.066Z,20.55
2022-09-03T07:54:01.545Z,20.30
2022-09-03T07:56:31.287Z,20.22
2022-09-03T07:58:59.335Z,20.13
2022-09-03T08:01:37.230Z,20.03
2022-09-03T08:04:09.515Z,20.01
2022-09-03T08:06:38.021Z,20.05
2022-09-03T08:09:09.974Z,20.10
2022-09-03T08:11:38.902Z,20.10
2022-09-03T08:14:08.265Z,20.11
2022-09-03T08:16:41.849Z,20.09
2022-09-03T08:19:09.047Z,20.08
2022-09-03T08:21:35.817Z,20.05
2022-09-03T08:24:03.087Z,20.03
2022-09-03T08:26:32.191Z,20.06
2022-09-03T08:28:59.889Z,20.02
2022-09-03T08:31:28.131Z,20.06
2022-09-03T08:33:56.744Z,20.14
2022-09-03T08:36:25.497Z,20.14
2022-09-03T08:38:55.129Z,20.20
2022-09-03T08:41:59.303Z,20.20
2022-09-03T08:44:50.278Z,20.13
2022-09-03T08:47:23.668Z,20.08
2022-09-03T08:50:01.505Z,20.00
2022-09-03T08:52:39.011Z,20.06
2022-09-03T08:55:33.331Z,20.13
2022-09-03T08:58:06.837Z,19.98
2022-09-03T09:01:01.713Z,19.96
2022-09-03T09:03:35.582Z,20.04
2022-09-03T09:06:21.374Z,20.02
2022-09-03T09:09:18.939Z,20.06
2022-09-03T09:11:54.588Z,19.99
2022-09-03T09:14:39.483Z,19.92
2022-09-03T09:17:31.316Z,20.06
2022-09-03T09:20:03.668Z,20.11
2022-09-03T09:22:41.033Z,20.04
2022-09-03T09:25:16.536Z,20.06
2022-09-03T09:27:55.216Z,20.07
2022-09-03T09:30:22.039Z,20.09
2022-09-03T09:32:48.662Z,20.04
2022-09-03T09:35:18.506Z,20.10
2022-09-03T09:37:50.560Z,20.07
2022-09-03T09:40:33.257Z,20.11
2022-09-03T09:43:04.960Z,20.17
2022-09-03T09:45:34.303Z,20.12
2022-09-03T09:48:05.911Z,20.12
2022-09-03T09:50:32.485Z,20.16
2022-09-03T09:53:15.028Z,20.22
2022-09-03T09:56:00.521Z,20.13
2022-09-03T09:58:31.371Z,20.16
2022-09-03T10:01:02.537Z,20.22
2022-09-03T10:03:33.295Z,20.18
2022-09-03T10:06:26.109Z,20.24
2022-09-03T10:09:07.451Z,20.29
2022-09-03T10:11:39.875Z,20.32
2022-09-03T10:14:24.579Z,20.35
2022-09-03T10:17:01.150Z,20.27
2022-09-03T10:19:39.351Z,20.42
2022-09-03T10:22:20.599Z,20.50
2022-09-03T10:25:03.709Z,20.58
2022-09-03T10:27:32.111Z,20.69
2022-09-03T10:30:00.810Z,20.72
2022-09-03T10:32:37.866Z,20.83
2022-09-03T10:35:30.075Z,20.77
2022-09-03T10:38:05.434Z,20.83
2022-09-03T10:40:42.926Z,20.62
2022-09-03T10:43:12.980Z,20.68
2022-09-03T10:46:05.170Z,20.75
2022-09-03T10:49:06.383Z,20.76
2022-09-03T10:51:42.647Z,20.63
2022-09-03T10:54:24.388Z,20.73
2022-09-03T10:57:15.733Z,20.76
2022-09-03T11:00:09.520Z,20.81
2022-09-03T11:03:07.554Z,20.85
2022-09-03T11:05:39.707Z,20.82
2022-09-03T11:08:24.162Z,20.94
2022-09-03T11:10:56.269Z,20.90
2022-09-03T11:13:39.097Z,20.86
2022-09-03T11:16:15.033Z,20.91
2022-09-03T11:19:03.944Z,21.03
2022-09-03T11:21:33.009Z,21.08
2022-09-03T11:24:13.723Z,21.06
2022-09-03T11:26:45.225Z,21.14
2022-09-03T11:29:26.823Z,21.12
2022-09-03T11:32:01.865Z,21.19
2022-09-03T11:34:33.045Z,21.11
2022-09-03T11:37:27.146Z,21.19
2022-09-03T11:40:17.516Z,21.26
2022-09-03T11:42:45.235Z,21.18
2022-09-03T11:45:23.398Z,21.21
2022-09-03T11:47:50.904Z,21.29
2022-09-03T11:50:22.745Z,21.31
2022-09-03T11:52:52.418Z,21.30
2022-09-03T11:55:26.694Z,21.36
2022-09-03T11:57:53.338Z,21.38
2022-09-03T12:00:24.930Z,21.49
2022-09-03T12:02:59.180Z,21.52
2022-09-03T12:05:44.755Z,21.55
2022-09-03T12:08:18.583Z,21.54
2022-09-03T12:10:59.006Z,21.76
2022-09-03T12:13:52.794Z,21.89
2022-09-03T12:16:34.355Z,22.06
2022-09-03T12:19:26.156Z,22.07
2022-09-03T12:21:52.879Z,22.28
2022-09-03T12:24:20.361Z,22.45
2022-09-03T12:26:47.048Z,22.57
2022-09-03T12:29:28.325Z,22.90
2022-09-03T12:32:11.650Z,23.15
2022-09-03T12:34:40.387Z,22.98
2022-09-03T12:40:21.871Z,23.77
2022-09-03T12:42:48.942Z,23.83
2022-09-03T12:45:23.786Z,24.10
2022-09-03T12:47:51.711Z,24.32
2022-09-03T12:50:21.383Z,24.39
2022-09-03T12:53:00.851Z,24.58
2022-09-03T12:55:40.425Z,24.72
2022-09-03T12:58:14.154Z,24.70
2022-09-03T13:01:14.166Z,24.41
2022-09-03T13:04:03.363Z,24.51
2022-09-03T13:06:43.064Z,24.58
2022-09-03T13:09:10.760Z,24.65
2022-09-03T13:11:37.518Z,24.69
2022-09-03T13:14:13.483Z,24.73
2022-09-03T13:16:46.686Z,24.81
2022-09-03T13:19:22.719Z,24.84
2022-09-03T13:22:25.807Z,24.91
2022-09-03T13:24:52.315Z,24.78
2022-09-03T13:27:49.292Z,24.70
2022-09-03T13:30:20.516Z,24.66
2022-09-03T13:33:22.377Z,24.70
2022-09-03T13:36:05.657Z,24.85
2022-09-03T13:38:46.532Z,24.84
2022-09-03T13:41:21.760Z,24.84
2022-09-03T13:44:09.305Z,24.88
2022-09-03T13:46:53.893Z,24.76
2022-09-03T13:50:01.233Z,24.78
2022-09-03T13:52:35.141Z,24.63
2022-09-03T13:55:12.878Z,24.56
2022-09-03T13:57:51.069Z,24.62
2022-09-03T14:00:30.373Z,24.54
2022-09-03T14:03:21.159Z,24.44
2022-09-03T14:06:02.737Z,24.38
2022-09-03T14:09:10.128Z,24.33
2022-09-03T14:11:59.197Z,24.31
2022-09-03T14:14:40.676Z,24.24
2022-09-03T14:17:48.775Z,24.19
2022-09-03T14:20:27.393Z,24.05
2022-09-03T14:23:05.985Z,24.00
2022-09-03T14:25:33.840Z,23.93
2022-09-03T14:28:33.977Z,23.79
2022-09-03T14:31:36.698Z,23.74
2022-09-03T14:34:19.750Z,23.71
2022-09-03T14:37:08.614Z,23.74
2022-09-03T14:40:05.080Z,23.63
2022-09-03T14:42:48.946Z,23.63
2022-09-03T14:45:33.905Z,23.55
2022-09-03T14:48:28.311Z,23.70
2022-09-03T14:51:19.203Z,23.71
2022-09-03T14:53:55.761Z,23.57
2022-09-03T14:56:49.260Z,23.55
2022-09-03T14:59:50.883Z,23.52
2022-09-03T15:02:46.393Z,23.50
2022-09-03T15:05:29.848Z,23.51
2022-09-03T15:08:02.193Z,23.54
2022-09-03T15:10:56.833Z,23.55
2022-09-03T15:13:49.105Z,23.58
2022-09-03T15:16:40.545Z,23.64
2022-09-03T15:19:31.901Z,23.58
2022-09-03T15:22:09.786Z,23.56
2022-09-03T15:24:50.853Z,23.42
2022-09-03T15:27:33.376Z,23.48
2022-09-03T15:30:12.517Z,23.48
2022-09-03T15:32:57.825Z,23.46
2022-09-03T15:35:56.071Z,23.46
2022-09-03T15:38:39.180Z,23.47
2022-09-03T15:41:11.651Z,23.40
2022-09-03T15:43:40.525Z,23.38
2022-09-03T15:46:33.232Z,23.42
2022-09-03T15:49:09.047Z,23.41
2022-09-03T15:51:47.258Z,23.30
2022-09-03T15:54:27.207Z,23.26
2022-09-03T15:57:06.013Z,23.27
2022-09-03T16:00:07.402Z,23.34
2022-09-03T16:02:49.352Z,23.14
2022-09-03T16:05:24.327Z,23.12
2022-09-03T16:08:17.359Z,23.06
2022-09-03T16:11:06.891Z,22.95
2022-09-03T16:13:50.795Z,22.86
2022-09-03T16:16:57.933Z,22.83
2022-09-03T16:19:30.843Z,22.76
2022-09-03T16:22:05.624Z,22.69
2022-09-03T16:24:58.359Z,22.65
2022-09-03T16:27:30.829Z,22.49
2022-09-03T16:30:12.534Z,22.54
2022-09-03T16:32:51.888Z,22.48
2022-09-03T16:35:35.651Z,22.40
2022-09-03T16:38:05.032Z,22.33
2022-09-03T16:40:34.534Z,22.38
2022-09-03T16:43:01.028Z,22.28
2022-09-03T16:45:36.489Z,22.26
2022-09-03T16:48:16.783Z,22.27
2022-09-03T16:51:08.547Z,22.26
2022-09-03T16:54:09.294Z,22.24
2022-09-03T16:56:51.150Z,22.15
2022-09-03T16:59:50.743Z,22.12
2022-09-03T17:02:41.535Z,22.07
2022-09-03T17:05:48.212Z,22.00
2022-09-03T17:08:59.924Z,21.93
2022-09-03T17:11:43.238Z,21.91
2022-09-03T17:14:47.514Z,21.90
2022-09-03T17:17:32.556Z,21.88
2022-09-03T17:20:20.622Z,21.80
2022-09-03T17:23:09.712Z,21.73
2022-09-03T17:25:47.872Z,21.73
2022-09-03T17:28:53.616Z,21.70
2022-09-03T17:31:40.679Z,21.64
2022-09-03T17:34:16.179Z,21.60
2022-09-03T17:37:08.288Z,21.59
2022-09-03T17:39:54.957Z,21.55
2022-09-03T17:42:22.174Z,21.54
2022-09-03T17:45:07.088Z,21.49
2022-09-03T17:48:00.166Z,21.50
2022-09-03T17:50:33.773Z,21.37
2022-09-03T17:53:12.261Z,21.42
2022-09-03T17:55:44.221Z,21.38
2022-09-03T17:58:21.955Z,21.37
2022-09-03T18:01:03.076Z,21.37
2022-09-03T18:04:04.519Z,21.26
2022-09-03T18:06:55.802Z,21.11
2022-09-03T18:09:32.756Z,20.79
2022-09-03T18:12:05.488Z,20.84
2022-09-03T18:14:49.320Z,20.76
2022-09-03T18:17:31.401Z,20.84
2022-09-03T18:20:25.034Z,20.66
2022-09-03T18:23:30.483Z,20.61
2022-09-03T18:26:21.201Z,20.30
2022-09-03T18:29:17.310Z,20.50
2022-09-03T18:32:03.787Z,20.23
2022-09-03T18:34:52.821Z,20.15
2022-09-03T18:37:43.029Z,20.04
2022-09-03T18:40:39.432Z,20.17
2022-09-03T18:44:00.300Z,20.20
2022-09-03T18:50:48.152Z,20.25
2022-09-03T18:53:47.358Z,20.18
2022-09-03T18:56:47.240Z,19.92
2022-09-03T19:00:05.762Z,19.60
2022-09-03T19:03:21.603Z,19.75
2022-09-03T19:06:34.722Z,19.79
2022-09-03T19:09:32.332Z,19.55
2022-09-03T19:12:36.459Z,19.48
2022-09-03T19:15:46.117Z,19.41
2022-09-03T19:18:52.778Z,19.50
2022-09-03T19:22:06.894Z,19.58
2022-09-03T19:24:52.239Z,19.36
2022-09-03T19:28:00.309Z,19.17
2022-09-03T19:31:20.435Z,19.13
2022-09-03T19:34:37.094Z,19.20
2022-09-03T19:37:32.244Z,19.34
2022-09-03T19:40:28.355Z,19.33
2022-09-03T19:43:45.349Z,19.33
2022-09-03T19:46:46.743Z,19.32
2022-09-03T19:50:15.045Z,19.14
2022-09-03T19:53:14.598Z,19.08
2022-09-03T19:56:07.645Z,19.06
2022-09-03T19:58:57.365Z,18.98
2022-09-03T20:01:48.831Z,18.69
2022-09-03T20:04:35.270Z,18.80
2022-09-03T20:07:25.561Z,18.77
2022-09-03T20:10:20.065Z,18.80
2022-09-03T20:13:04.155Z,18.64
2022-09-03T20:16:08.272Z,18.79
2022-09-03T20:18:59.243Z,18.77
2022-09-03T20:21:47.733Z,18.83
2022-09-03T20:24:40.298Z,18.90
2022-09-03T20:27:19.140Z,18.76
2022-09-03T20:30:05.956Z,18.88
2022-09-03T20:32:38.634Z,18.67
2022-09-03T20:35:33.306Z,18.58
2022-09-03T20:38:15.245Z,18.66
2022-09-03T20:41:17.864Z,18.70
2022-09-03T20:44:03.339Z,18.72
2022-09-03T20:46:38.795Z,18.67
2022-09-03T20:49:20.237Z,18.51
2022-09-03T20:52:18.998Z,18.46
2022-09-03T20:55:20.582Z,18.40
2022-09-03T20:58:20.168Z,18.26
2022-09-03T21:00:50.235Z,18.19
2022-09-03T21:03:37.275Z,18.44
2022-09-03T21:06:33.647Z,18.56
2022-09-03T21:09:16.760Z,18.40
2022-09-03T21:11:56.660Z,18.56
2022-09-03T21:14:43.406Z,18.57
2022-09-03T21:17:28.586Z,18.44
2022-09-03T21:20:28.508Z,18.50
2022-09-03T21:23:16.609Z,18.40
2022-09-03T21:25:51.239Z,18.46
2022-09-03T21:28:38.545Z,18.32
2022-09-03T21:31:23.577Z,18.36
2022-09-03T21:33:55.675Z,18.33
2022-09-03T21:36:26.060Z,18.22
2022-09-03T21:39:28.004Z,18.23
2022-09-03T21:42:06.290Z,18.26
2022-09-03T21:44:51.144Z,18.20
2022-09-03T21:47:21.395Z,18.22
2022-09-03T21:49:50.749Z,18.14
2022-09-03T21:52:23.274Z,18.26
2022-09-03T21:54:52.037Z,18.18
2022-09-03T21:58:00.742Z,18.10
2022-09-03T22:00:33.510Z,18.19
2022-09-03T22:03:01.026Z,18.17
2022-09-03T22:05:37.323Z,18.10
2022-09-03T22:08:27.149Z,18.16
2022-09-03T22:11:12.507Z,18.14
2022-09-03T22:14:11.122Z,17.88
2022-09-03T22:16:45.256Z,17.94
2022-09-03T22:19:12.171Z,17.87
2022-09-03T22:21:52.719Z,17.99
2022-09-03T22:24:34.400Z,17.84
2022-09-03T22:27:14.394Z,17.86
2022-09-03T22:30:02.788Z,17.97
2022-09-03T22:32:50.725Z,18.11
2022-09-03T22:35:43.942Z,18.13
2022-09-03T22:38:30.720Z,18.10
2022-09-03T22:41:27.967Z,18.11
2022-09-03T22:44:32.152Z,17.71
2022-09-03T22:47:15.521Z,17.87
2022-09-03T22:49:57.401Z,17.97
2022-09-03T22:52:47.354Z,17.96
2022-09-03T22:55:25.357Z,17.99
2022-09-03T22:58:03.389Z,17.88
2022-09-03T23:00:34.098Z,17.87
2022-09-03T23:03:08.548Z,17.83
2022-09-03T23:05:44.007Z,17.54
2022-09-03T23:08:36.923Z,17.60
2022-09-03T23:11:14.768Z,17.62
2022-09-03T23:13:46.834Z,17.60
2022-09-03T23:16:30.794Z,17.23
2022-09-03T23:19:01.798Z,17.32
2022-09-03T23:21:39.243Z,17.47
2022-09-03T23:24:12.047Z,17.47
2022-09-03T23:26:44.379Z,17.53
2022-09-03T23:29:34.661Z,17.52
2022-09-03T23:32:06.024Z,17.56
2022-09-03T23:34:33.293Z,17.55
2022-09-03T23:40:10.108Z,17.41
2022-09-03T23:42:54.325Z,17.40
2022-09-03T23:45:43.179Z,17.30
2022-09-03T23:48:43.170Z,17.39
2022-09-03T23:51:46.582Z,17.42
2022-09-03T23:54:23.267Z,17.37
2022-09-03T23:57:05.415Z,17.37
